sensor_id;sensor_type;location;lat;lon;timestamp;P1;durP1;ratioP1;P2;durP2;ratioP2
8480;SDS011;4277;51.354;6.740;2023-05-10T00:00:53;16.13;;;12.60;;
8480;SDS011;4277;51.354;6.740;2023-05-10T00:03:19;16.27;;;12.27;;
8480;SDS011;4277;51.354;6.740;2023-05-10T00:05:45;15.30;;;11.60;;
8480;SDS011;4277;51.354;6.740;2023-05-10T00:08:11;13.63;;;11.33;;
8480;SDS011;4277;51.354;6.740;2023-05-10T00:10:37;15.33;;;11.73;;
8480;SDS011;4277;51.354;6.740;2023-05-10T00:13:03;13.23;;;11.17;;
8480;SDS011;4277;51.354;6.740;2023-05-10T00:15:29;13.33;;;10.63;;
8480;SDS011;4277;51.354;6.740;2023-05-10T00:17:57;13.17;;;11.30;;
8480;SDS011;4277;51.354;6.740;2023-05-10T00:20:23;13.80;;;11.80;;
8480;SDS011;4277;51.354;6.740;2023-05-10T00:22:49;13.33;;;11.70;;
8480;SDS011;4277;51.354;6.740;2023-05-10T00:25:15;12.77;;;11.33;;
8480;SDS011;4277;51.354;6.740;2023-05-10T00:27:41;13.77;;;11.77;;
8480;SDS011;4277;51.354;6.740;2023-05-10T00:30:07;14.20;;;12.47;;
8480;SDS011;4277;51.354;6.740;2023-05-10T00:32:34;14.00;;;12.13;;
8480;SDS011;4277;51.354;6.740;2023-05-10T00:35:00;14.07;;;12.17;;
8480;SDS011;4277;51.354;6.740;2023-05-10T00:37:26;17.30;;;12.63;;
8480;SDS011;4277;51.354;6.740;2023-05-10T00:39:52;15.27;;;13.20;;
8480;SDS011;4277;51.354;6.740;2023-05-10T00:42:18;15.70;;;12.83;;
8480;SDS011;4277;51.354;6.740;2023-05-10T00:44:44;14.83;;;12.90;;
8480;SDS011;4277;51.354;6.740;2023-05-10T00:47:10;14.93;;;12.80;;
8480;SDS011;4277;51.354;6.740;2023-05-10T00:49:36;17.13;;;13.43;;
8480;SDS011;4277;51.354;6.740;2023-05-10T00:52:02;16.30;;;13.00;;
8480;SDS011;4277;51.354;6.740;2023-05-10T00:54:28;16.63;;;13.37;;
8480;SDS011;4277;51.354;6.740;2023-05-10T00:56:54;15.23;;;13.33;;
8480;SDS011;4277;51.354;6.740;2023-05-10T00:59:21;17.03;;;13.40;;
8480;SDS011;4277;51.354;6.740;2023-05-10T01:01:47;14.60;;;12.73;;
8480;SDS011;4277;51.354;6.740;2023-05-10T01:04:14;15.97;;;13.33;;
8480;SDS011;4277;51.354;6.740;2023-05-10T01:06:40;15.60;;;13.30;;
8480;SDS011;4277;51.354;6.740;2023-05-10T01:09:06;16.30;;;13.23;;
8480;SDS011;4277;51.354;6.740;2023-05-10T01:11:33;17.90;;;13.30;;
8480;SDS011;4277;51.354;6.740;2023-05-10T01:14:00;17.93;;;14.00;;
8480;SDS011;4277;51.354;6.740;2023-05-10T01:16:27;15.80;;;13.63;;
8480;SDS011;4277;51.354;6.740;2023-05-10T01:18:53;17.03;;;13.67;;
8480;SDS011;4277;51.354;6.740;2023-05-10T01:34:10;19.20;;;15.23;;
8480;SDS011;4277;51.354;6.740;2023-05-10T01:36:40;18.70;;;14.57;;
8480;SDS011;4277;51.354;6.740;2023-05-10T01:39:20;19.87;;;14.97;;
8480;SDS011;4277;51.354;6.740;2023-05-10T01:42:02;18.13;;;14.67;;
8480;SDS011;4277;51.354;6.740;2023-05-10T01:44:31;20.17;;;15.80;;
8480;SDS011;4277;51.354;6.740;2023-05-10T01:47:05;18.67;;;14.80;;
8480;SDS011;4277;51.354;6.740;2023-05-10T01:49:54;17.87;;;14.50;;
8480;SDS011;4277;51.354;6.740;2023-05-10T01:52:19;20.27;;;15.50;;
8480;SDS011;4277;51.354;6.740;2023-05-10T01:54:49;19.70;;;14.57;;
8480;SDS011;4277;51.354;6.740;2023-05-10T01:57:15;19.80;;;13.93;;
8480;SDS011;4277;51.354;6.740;2023-05-10T01:59:43;19.27;;;13.60;;
8480;SDS011;4277;51.354;6.740;2023-05-10T02:02:09;17.07;;;12.97;;
8480;SDS011;4277;51.354;6.740;2023-05-10T02:04:37;16.53;;;12.60;;
8480;SDS011;4277;51.354;6.740;2023-05-10T02:07:04;18.87;;;12.97;;
8480;SDS011;4277;51.354;6.740;2023-05-10T02:09:30;18.03;;;13.13;;
8480;SDS011;4277;51.354;6.740;2023-05-10T02:11:58;17.43;;;13.47;;
8480;SDS011;4277;51.354;6.740;2023-05-10T02:14:25;16.23;;;11.83;;
8480;SDS011;4277;51.354;6.740;2023-05-10T02:16:52;17.20;;;12.67;;
8480;SDS011;4277;51.354;6.740;2023-05-10T02:19:19;15.77;;;11.53;;
8480;SDS011;4277;51.354;6.740;2023-05-10T02:21:45;15.20;;;11.73;;
8480;SDS011;4277;51.354;6.740;2023-05-10T02:24:11;16.27;;;12.53;;
8480;SDS011;4277;51.354;6.740;2023-05-10T02:26:38;15.27;;;12.57;;
8480;SDS011;4277;51.354;6.740;2023-05-10T02:29:05;16.23;;;12.07;;
8480;SDS011;4277;51.354;6.740;2023-05-10T02:31:32;15.97;;;12.77;;
8480;SDS011;4277;51.354;6.740;2023-05-10T02:33:59;16.73;;;12.63;;
8480;SDS011;4277;51.354;6.740;2023-05-10T02:36:26;20.17;;;12.60;;
8480;SDS011;4277;51.354;6.740;2023-05-10T02:38:53;15.03;;;11.40;;
8480;SDS011;4277;51.354;6.740;2023-05-10T02:41:19;16.77;;;12.00;;
8480;SDS011;4277;51.354;6.740;2023-05-10T02:43:47;20.40;;;12.83;;
8480;SDS011;4277;51.354;6.740;2023-05-10T02:46:15;16.57;;;12.53;;
8480;SDS011;4277;51.354;6.740;2023-05-10T02:48:41;18.13;;;13.03;;
8480;SDS011;4277;51.354;6.740;2023-05-10T02:51:07;18.60;;;12.53;;
8480;SDS011;4277;51.354;6.740;2023-05-10T02:53:34;17.97;;;13.87;;
8480;SDS011;4277;51.354;6.740;2023-05-10T02:56:03;17.67;;;13.43;;
8480;SDS011;4277;51.354;6.740;2023-05-10T02:58:32;19.73;;;14.50;;
8480;SDS011;4277;51.354;6.740;2023-05-10T03:00:57;17.17;;;13.20;;
8480;SDS011;4277;51.354;6.740;2023-05-10T03:03:23;19.10;;;13.33;;
8480;SDS011;4277;51.354;6.740;2023-05-10T03:05:49;19.77;;;13.83;;
8480;SDS011;4277;51.354;6.740;2023-05-10T03:08:15;21.60;;;14.00;;
8480;SDS011;4277;51.354;6.740;2023-05-10T03:10:45;19.97;;;12.93;;
8480;SDS011;4277;51.354;6.740;2023-05-10T03:20:59;17.40;;;12.67;;
8480;SDS011;4277;51.354;6.740;2023-05-10T03:23:30;16.50;;;12.50;;
8480;SDS011;4277;51.354;6.740;2023-05-10T03:25:59;18.30;;;12.90;;
8480;SDS011;4277;51.354;6.740;2023-05-10T03:28:26;19.07;;;12.43;;
8480;SDS011;4277;51.354;6.740;2023-05-10T03:30:53;18.83;;;11.77;;
8480;SDS011;4277;51.354;6.740;2023-05-10T03:33:19;19.90;;;12.73;;
8480;SDS011;4277;51.354;6.740;2023-05-10T03:35:45;17.37;;;12.17;;
8480;SDS011;4277;51.354;6.740;2023-05-10T03:38:12;17.57;;;12.10;;
8480;SDS011;4277;51.354;6.740;2023-05-10T03:40:38;18.97;;;12.90;;
8480;SDS011;4277;51.354;6.740;2023-05-10T03:43:04;17.00;;;11.73;;
8480;SDS011;4277;51.354;6.740;2023-05-10T03:45:30;18.63;;;11.93;;
8480;SDS011;4277;51.354;6.740;2023-05-10T03:47:59;17.33;;;12.43;;
8480;SDS011;4277;51.354;6.740;2023-05-10T03:50:25;18.40;;;12.60;;
8480;SDS011;4277;51.354;6.740;2023-05-10T03:52:51;17.20;;;12.80;;
8480;SDS011;4277;51.354;6.740;2023-05-10T03:55:17;18.90;;;12.23;;
8480;SDS011;4277;51.354;6.740;2023-05-10T03:57:43;19.00;;;12.60;;
8480;SDS011;4277;51.354;6.740;2023-05-10T04:00:09;18.80;;;12.63;;
8480;SDS011;4277;51.354;6.740;2023-05-10T04:02:35;18.93;;;12.47;;
8480;SDS011;4277;51.354;6.740;2023-05-10T04:05:01;16.87;;;11.30;;
8480;SDS011;4277;51.354;6.740;2023-05-10T04:07:27;20.30;;;13.67;;
8480;SDS011;4277;51.354;6.740;2023-05-10T04:09:54;19.47;;;12.87;;
8480;SDS011;4277;51.354;6.740;2023-05-10T04:12:20;19.47;;;13.30;;
8480;SDS011;4277;51.354;6.740;2023-05-10T04:14:46;19.80;;;13.33;;
8480;SDS011;4277;51.354;6.740;2023-05-10T04:17:11;22.17;;;13.43;;
8480;SDS011;4277;51.354;6.740;2023-05-10T04:19:37;21.40;;;13.50;;
8480;SDS011;4277;51.354;6.740;2023-05-10T04:22:03;24.00;;;15.23;;
8480;SDS011;4277;51.354;6.740;2023-05-10T04:24:29;26.07;;;15.27;;
8480;SDS011;4277;51.354;6.740;2023-05-10T04:26:55;24.67;;;14.80;;
8480;SDS011;4277;51.354;6.740;2023-05-10T04:29:21;24.40;;;16.00;;
8480;SDS011;4277;51.354;6.740;2023-05-10T04:31:47;25.23;;;16.50;;
8480;SDS011;4277;51.354;6.740;2023-05-10T04:34:13;25.57;;;17.20;;
8480;SDS011;4277;51.354;6.740;2023-05-10T04:36:39;33.23;;;17.33;;
8480;SDS011;4277;51.354;6.740;2023-05-10T04:39:05;27.67;;;17.50;;
8480;SDS011;4277;51.354;6.740;2023-05-10T04:41:31;27.90;;;18.87;;
8480;SDS011;4277;51.354;6.740;2023-05-10T04:43:57;32.37;;;20.07;;
8480;SDS011;4277;51.354;6.740;2023-05-10T04:46:23;32.33;;;19.63;;
8480;SDS011;4277;51.354;6.740;2023-05-10T04:48:49;34.90;;;20.50;;
8480;SDS011;4277;51.354;6.740;2023-05-10T04:51:15;28.60;;;17.83;;
8480;SDS011;4277;51.354;6.740;2023-05-10T04:53:41;33.57;;;21.00;;
8480;SDS011;4277;51.354;6.740;2023-05-10T04:56:07;37.50;;;22.57;;
8480;SDS011;4277;51.354;6.740;2023-05-10T04:58:33;33.40;;;21.77;;
8480;SDS011;4277;51.354;6.740;2023-05-10T05:01:06;37.27;;;23.13;;
8480;SDS011;4277;51.354;6.740;2023-05-10T05:03:32;33.50;;;21.20;;
8480;SDS011;4277;51.354;6.740;2023-05-10T05:05:58;35.73;;;22.10;;
8480;SDS011;4277;51.354;6.740;2023-05-10T05:08:24;38.27;;;22.93;;
8480;SDS011;4277;51.354;6.740;2023-05-10T05:10:50;34.23;;;21.77;;
8480;SDS011;4277;51.354;6.740;2023-05-10T05:13:17;29.93;;;21.07;;
8480;SDS011;4277;51.354;6.740;2023-05-10T05:15:43;33.57;;;22.43;;
8480;SDS011;4277;51.354;6.740;2023-05-10T05:18:09;36.27;;;21.90;;
8480;SDS011;4277;51.354;6.740;2023-05-10T05:20:35;34.97;;;22.50;;
8480;SDS011;4277;51.354;6.740;2023-05-10T05:23:01;33.57;;;22.73;;
8480;SDS011;4277;51.354;6.740;2023-05-10T05:25:27;28.93;;;20.57;;
8480;SDS011;4277;51.354;6.740;2023-05-10T05:27:53;34.47;;;22.57;;
8480;SDS011;4277;51.354;6.740;2023-05-10T05:30:19;31.13;;;21.30;;
8480;SDS011;4277;51.354;6.740;2023-05-10T05:32:45;30.70;;;20.73;;
8480;SDS011;4277;51.354;6.740;2023-05-10T05:35:12;31.33;;;21.37;;
8480;SDS011;4277;51.354;6.740;2023-05-10T05:37:38;31.13;;;21.23;;
8480;SDS011;4277;51.354;6.740;2023-05-10T05:40:04;36.37;;;22.00;;
8480;SDS011;4277;51.354;6.740;2023-05-10T05:42:30;31.40;;;22.27;;
8480;SDS011;4277;51.354;6.740;2023-05-10T05:44:57;31.17;;;21.30;;
8480;SDS011;4277;51.354;6.740;2023-05-10T05:47:23;33.33;;;22.17;;
8480;SDS011;4277;51.354;6.740;2023-05-10T05:49:48;31.67;;;20.63;;
8480;SDS011;4277;51.354;6.740;2023-05-10T05:52:14;31.97;;;21.53;;
8480;SDS011;4277;51.354;6.740;2023-05-10T05:54:40;32.60;;;22.90;;
8480;SDS011;4277;51.354;6.740;2023-05-10T05:57:06;34.03;;;22.23;;
8480;SDS011;4277;51.354;6.740;2023-05-10T05:59:32;35.47;;;23.53;;
8480;SDS011;4277;51.354;6.740;2023-05-10T06:01:58;36.93;;;23.70;;
8480;SDS011;4277;51.354;6.740;2023-05-10T06:04:25;39.17;;;25.00;;
8480;SDS011;4277;51.354;6.740;2023-05-10T06:06:51;38.87;;;24.40;;
8480;SDS011;4277;51.354;6.740;2023-05-10T06:09:17;40.53;;;25.10;;
8480;SDS011;4277;51.354;6.740;2023-05-10T06:11:43;41.03;;;24.97;;
8480;SDS011;4277;51.354;6.740;2023-05-10T06:14:09;42.90;;;24.73;;
8480;SDS011;4277;51.354;6.740;2023-05-10T06:16:35;40.83;;;26.07;;
8480;SDS011;4277;51.354;6.740;2023-05-10T06:19:02;43.07;;;26.60;;
8480;SDS011;4277;51.354;6.740;2023-05-10T06:21:27;41.17;;;24.80;;
8480;SDS011;4277;51.354;6.740;2023-05-10T06:23:53;48.77;;;27.33;;
8480;SDS011;4277;51.354;6.740;2023-05-10T06:26:20;38.93;;;23.93;;
8480;SDS011;4277;51.354;6.740;2023-05-10T06:28:45;40.27;;;25.23;;
8480;SDS011;4277;51.354;6.740;2023-05-10T06:31:11;46.50;;;25.30;;
8480;SDS011;4277;51.354;6.740;2023-05-10T06:33:37;44.23;;;25.17;;
8480;SDS011;4277;51.354;6.740;2023-05-10T06:36:03;46.03;;;26.93;;
8480;SDS011;4277;51.354;6.740;2023-05-10T06:38:29;45.93;;;25.43;;
8480;SDS011;4277;51.354;6.740;2023-05-10T06:40:55;47.33;;;27.07;;
8480;SDS011;4277;51.354;6.740;2023-05-10T06:43:22;47.27;;;26.43;;
8480;SDS011;4277;51.354;6.740;2023-05-10T06:45:49;46.43;;;27.03;;
8480;SDS011;4277;51.354;6.740;2023-05-10T06:48:15;47.40;;;26.17;;
8480;SDS011;4277;51.354;6.740;2023-05-10T06:50:41;52.97;;;27.17;;
8480;SDS011;4277;51.354;6.740;2023-05-10T06:53:07;49.93;;;27.13;;
8480;SDS011;4277;51.354;6.740;2023-05-10T06:55:33;45.77;;;26.10;;
8480;SDS011;4277;51.354;6.740;2023-05-10T06:57:59;49.97;;;27.07;;
8480;SDS011;4277;51.354;6.740;2023-05-10T07:00:25;44.77;;;25.93;;
8480;SDS011;4277;51.354;6.740;2023-05-10T07:02:51;45.67;;;27.70;;
8480;SDS011;4277;51.354;6.740;2023-05-10T07:05:17;43.40;;;24.83;;
8480;SDS011;4277;51.354;6.740;2023-05-10T07:07:44;51.10;;;26.50;;
8480;SDS011;4277;51.354;6.740;2023-05-10T07:10:10;49.93;;;26.43;;
8480;SDS011;4277;51.354;6.740;2023-05-10T07:12:36;48.97;;;24.90;;
8480;SDS011;4277;51.354;6.740;2023-05-10T07:15:03;48.93;;;25.17;;
8480;SDS011;4277;51.354;6.740;2023-05-10T07:17:29;44.87;;;24.73;;
8480;SDS011;4277;51.354;6.740;2023-05-10T07:19:55;48.40;;;25.50;;
8480;SDS011;4277;51.354;6.740;2023-05-10T07:22:21;44.60;;;24.27;;
8480;SDS011;4277;51.354;6.740;2023-05-10T07:24:47;44.50;;;24.40;;
8480;SDS011;4277;51.354;6.740;2023-05-10T07:27:13;41.80;;;23.33;;
8480;SDS011;4277;51.354;6.740;2023-05-10T07:29:39;42.93;;;23.17;;
8480;SDS011;4277;51.354;6.740;2023-05-10T07:32:05;38.57;;;22.77;;
8480;SDS011;4277;51.354;6.740;2023-05-10T07:34:31;38.70;;;22.80;;
8480;SDS011;4277;51.354;6.740;2023-05-10T07:37:00;42.07;;;23.13;;
8480;SDS011;4277;51.354;6.740;2023-05-10T07:39:26;36.93;;;22.23;;
8480;SDS011;4277;51.354;6.740;2023-05-10T07:41:53;33.93;;;21.97;;
8480;SDS011;4277;51.354;6.740;2023-05-10T07:44:19;33.97;;;20.43;;
8480;SDS011;4277;51.354;6.740;2023-05-10T07:46:45;31.63;;;20.70;;
8480;SDS011;4277;51.354;6.740;2023-05-10T07:49:11;32.17;;;20.73;;
8480;SDS011;4277;51.354;6.740;2023-05-10T07:51:37;28.60;;;18.77;;
8480;SDS011;4277;51.354;6.740;2023-05-10T07:54:03;30.83;;;19.97;;
8480;SDS011;4277;51.354;6.740;2023-05-10T07:56:30;30.17;;;20.17;;
8480;SDS011;4277;51.354;6.740;2023-05-10T07:58:56;37.97;;;22.63;;
8480;SDS011;4277;51.354;6.740;2023-05-10T08:01:23;38.93;;;22.13;;
8480;SDS011;4277;51.354;6.740;2023-05-10T08:03:49;38.90;;;23.70;;
8480;SDS011;4277;51.354;6.740;2023-05-10T08:06:16;40.00;;;22.43;;
8480;SDS011;4277;51.354;6.740;2023-05-10T08:08:42;42.57;;;24.37;;
8480;SDS011;4277;51.354;6.740;2023-05-10T08:11:10;38.00;;;24.17;;
8480;SDS011;4277;51.354;6.740;2023-05-10T08:13:36;39.43;;;24.27;;
8480;SDS011;4277;51.354;6.740;2023-05-10T08:16:02;41.57;;;24.77;;
8480;SDS011;4277;51.354;6.740;2023-05-10T08:18:28;39.33;;;23.30;;
8480;SDS011;4277;51.354;6.740;2023-05-10T08:20:54;39.67;;;23.40;;
8480;SDS011;4277;51.354;6.740;2023-05-10T08:23:20;41.33;;;24.33;;
8480;SDS011;4277;51.354;6.740;2023-05-10T08:25:46;37.20;;;23.53;;
8480;SDS011;4277;51.354;6.740;2023-05-10T08:28:12;40.17;;;24.50;;
8480;SDS011;4277;51.354;6.740;2023-05-10T08:30:37;37.07;;;23.60;;
8480;SDS011;4277;51.354;6.740;2023-05-10T08:33:03;42.27;;;25.03;;
8480;SDS011;4277;51.354;6.740;2023-05-10T08:35:29;41.63;;;24.30;;
8480;SDS011;4277;51.354;6.740;2023-05-10T08:37:56;36.37;;;24.00;;
8480;SDS011;4277;51.354;6.740;2023-05-10T08:40:22;38.30;;;24.87;;
8480;SDS011;4277;51.354;6.740;2023-05-10T08:42:51;36.37;;;24.50;;
8480;SDS011;4277;51.354;6.740;2023-05-10T08:45:19;36.20;;;23.63;;
8480;SDS011;4277;51.354;6.740;2023-05-10T08:47:47;33.37;;;22.73;;
8480;SDS011;4277;51.354;6.740;2023-05-10T08:50:14;34.20;;;22.73;;
8480;SDS011;4277;51.354;6.740;2023-05-10T08:52:40;32.20;;;21.57;;
8480;SDS011;4277;51.354;6.740;2023-05-10T08:55:07;32.60;;;22.20;;
8480;SDS011;4277;51.354;6.740;2023-05-10T08:57:33;30.63;;;21.53;;
8480;SDS011;4277;51.354;6.740;2023-05-10T08:59:59;32.20;;;21.07;;
8480;SDS011;4277;51.354;6.740;2023-05-10T09:02:26;31.67;;;21.10;;
8480;SDS011;4277;51.354;6.740;2023-05-10T09:04:52;31.30;;;20.97;;
8480;SDS011;4277;51.354;6.740;2023-05-10T09:07:18;28.37;;;20.53;;
8480;SDS011;4277;51.354;6.740;2023-05-10T09:09:45;28.63;;;19.63;;
8480;SDS011;4277;51.354;6.740;2023-05-10T09:12:12;27.10;;;19.53;;
8480;SDS011;4277;51.354;6.740;2023-05-10T09:14:40;28.60;;;19.20;;
8480;SDS011;4277;51.354;6.740;2023-05-10T09:17:06;25.17;;;18.83;;
8480;SDS011;4277;51.354;6.740;2023-05-10T09:19:33;26.60;;;18.23;;
8480;SDS011;4277;51.354;6.740;2023-05-10T09:21:59;27.60;;;18.27;;
8480;SDS011;4277;51.354;6.740;2023-05-10T09:24:26;23.23;;;16.77;;
8480;SDS011;4277;51.354;6.740;2023-05-10T09:26:52;23.67;;;16.47;;
8480;SDS011;4277;51.354;6.740;2023-05-10T09:29:18;20.83;;;16.00;;
8480;SDS011;4277;51.354;6.740;2023-05-10T09:34:19;19.77;;;15.40;;
8480;SDS011;4277;51.354;6.740;2023-05-10T09:36:52;20.27;;;15.53;;
8480;SDS011;4277;51.354;6.740;2023-05-10T09:39:18;21.17;;;15.67;;
8480;SDS011;4277;51.354;6.740;2023-05-10T09:41:44;20.00;;;14.80;;
8480;SDS011;4277;51.354;6.740;2023-05-10T09:44:10;18.07;;;15.10;;
8480;SDS011;4277;51.354;6.740;2023-05-10T09:46:37;18.53;;;14.30;;
8480;SDS011;4277;51.354;6.740;2023-05-10T09:49:03;17.30;;;13.63;;
8480;SDS011;4277;51.354;6.740;2023-05-10T09:51:31;18.37;;;14.67;;
8480;SDS011;4277;51.354;6.740;2023-05-10T09:54:10;17.73;;;13.67;;
8480;SDS011;4277;51.354;6.740;2023-05-10T09:56:36;20.03;;;15.23;;
8480;SDS011;4277;51.354;6.740;2023-05-10T09:59:05;20.30;;;14.97;;
8480;SDS011;4277;51.354;6.740;2023-05-10T10:01:31;17.43;;;13.97;;
8480;SDS011;4277;51.354;6.740;2023-05-10T10:03:57;17.90;;;14.07;;
8480;SDS011;4277;51.354;6.740;2023-05-10T10:06:24;16.03;;;13.87;;
8480;SDS011;4277;51.354;6.740;2023-05-10T10:08:50;20.67;;;15.50;;
8480;SDS011;4277;51.354;6.740;2023-05-10T10:11:16;20.57;;;15.63;;
8480;SDS011;4277;51.354;6.740;2023-05-10T10:13:42;19.27;;;15.67;;
8480;SDS011;4277;51.354;6.740;2023-05-10T10:16:08;21.70;;;15.47;;
8480;SDS011;4277;51.354;6.740;2023-05-10T10:18:35;18.80;;;14.67;;
8480;SDS011;4277;51.354;6.740;2023-05-10T10:21:05;19.20;;;14.60;;
8480;SDS011;4277;51.354;6.740;2023-05-10T10:23:34;19.30;;;13.97;;
8480;SDS011;4277;51.354;6.740;2023-05-10T10:26:01;20.80;;;14.33;;
8480;SDS011;4277;51.354;6.740;2023-05-10T10:28:32;17.73;;;13.83;;
8480;SDS011;4277;51.354;6.740;2023-05-10T10:31:03;16.93;;;14.07;;
8480;SDS011;4277;51.354;6.740;2023-05-10T10:33:44;16.53;;;13.53;;
8480;SDS011;4277;51.354;6.740;2023-05-10T10:36:17;17.07;;;12.97;;
8480;SDS011;4277;51.354;6.740;2023-05-10T10:55:05;15.40;;;11.13;;
8480;SDS011;4277;51.354;6.740;2023-05-10T10:57:42;14.93;;;10.90;;
8480;SDS011;4277;51.354;6.740;2023-05-10T11:00:24;12.93;;;10.83;;
8480;SDS011;4277;51.354;6.740;2023-05-10T11:02:58;13.60;;;10.67;;
8480;SDS011;4277;51.354;6.740;2023-05-10T11:07:53;12.93;;;10.07;;
8480;SDS011;4277;51.354;6.740;2023-05-10T11:10:20;13.90;;;10.67;;
8480;SDS011;4277;51.354;6.740;2023-05-10T11:15:37;13.60;;;10.27;;
8480;SDS011;4277;51.354;6.740;2023-05-10T11:21:06;13.53;;;10.60;;
8480;SDS011;4277;51.354;6.740;2023-05-10T11:23:48;12.67;;;11.07;;
8480;SDS011;4277;51.354;6.740;2023-05-10T11:26:14;10.97;;;9.67;;
8480;SDS011;4277;51.354;6.740;2023-05-10T11:31:09;12.57;;;10.63;;
8480;SDS011;4277;51.354;6.740;2023-05-10T11:33:48;14.73;;;10.87;;
8480;SDS011;4277;51.354;6.740;2023-05-10T11:36:16;14.40;;;11.03;;
8480;SDS011;4277;51.354;6.740;2023-05-10T11:38:42;12.00;;;10.33;;
8480;SDS011;4277;51.354;6.740;2023-05-10T11:41:11;12.67;;;9.87;;
8480;SDS011;4277;51.354;6.740;2023-05-10T11:43:41;11.10;;;9.77;;
8480;SDS011;4277;51.354;6.740;2023-05-10T11:46:07;11.47;;;10.37;;
8480;SDS011;4277;51.354;6.740;2023-05-10T11:48:33;11.73;;;10.53;;
8480;SDS011;4277;51.354;6.740;2023-05-10T11:51:00;11.27;;;9.87;;
8480;SDS011;4277;51.354;6.740;2023-05-10T11:53:27;12.07;;;10.03;;
8480;SDS011;4277;51.354;6.740;2023-05-10T11:55:53;13.43;;;9.93;;
8480;SDS011;4277;51.354;6.740;2023-05-10T11:58:19;9.57;;;8.60;;
8480;SDS011;4277;51.354;6.740;2023-05-10T12:00:46;11.80;;;8.93;;
8480;SDS011;4277;51.354;6.740;2023-05-10T12:03:13;10.00;;;8.67;;
8480;SDS011;4277;51.354;6.740;2023-05-10T12:05:39;9.23;;;8.23;;
8480;SDS011;4277;51.354;6.740;2023-05-10T12:08:15;12.03;;;8.13;;
8480;SDS011;4277;51.354;6.740;2023-05-10T12:10:45;10.10;;;8.83;;
8480;SDS011;4277;51.354;6.740;2023-05-10T12:13:11;9.23;;;8.33;;
8480;SDS011;4277;51.354;6.740;2023-05-10T12:15:39;12.48;;;9.73;;
8480;SDS011;4277;51.354;6.740;2023-05-10T12:18:05;9.55;;;8.50;;
8480;SDS011;4277;51.354;6.740;2023-05-10T12:20:31;10.10;;;9.07;;
8480;SDS011;4277;51.354;6.740;2023-05-10T12:22:57;9.90;;;9.00;;
8480;SDS011;4277;51.354;6.740;2023-05-10T12:25:29;10.20;;;9.10;;
8480;SDS011;4277;51.354;6.740;2023-05-10T12:27:57;10.38;;;9.15;;
8480;SDS011;4277;51.354;6.740;2023-05-10T12:30:26;9.60;;;8.60;;
8480;SDS011;4277;51.354;6.740;2023-05-10T12:32:52;9.30;;;8.40;;
8480;SDS011;4277;51.354;6.740;2023-05-10T12:35:19;10.15;;;9.15;;
8480;SDS011;4277;51.354;6.740;2023-05-10T12:37:47;11.30;;;9.40;;
8480;SDS011;4277;51.354;6.740;2023-05-10T12:40:13;11.10;;;8.45;;
8480;SDS011;4277;51.354;6.740;2023-05-10T12:42:39;10.55;;;9.45;;
8480;SDS011;4277;51.354;6.740;2023-05-10T12:45:05;9.23;;;8.32;;
8480;SDS011;4277;51.354;6.740;2023-05-10T12:47:32;10.65;;;9.65;;
8480;SDS011;4277;51.354;6.740;2023-05-10T12:49:59;10.70;;;9.50;;
8480;SDS011;4277;51.354;6.740;2023-05-10T12:52:25;9.68;;;8.77;;
8480;SDS011;4277;51.354;6.740;2023-05-10T12:54:52;11.10;;;8.80;;
8480;SDS011;4277;51.354;6.740;2023-05-10T12:57:18;12.32;;;9.68;;
8480;SDS011;4277;51.354;6.740;2023-05-10T12:59:44;10.63;;;9.07;;
8480;SDS011;4277;51.354;6.740;2023-05-10T13:02:10;11.18;;;10.02;;
8480;SDS011;4277;51.354;6.740;2023-05-10T13:04:36;12.82;;;10.48;;
8480;SDS011;4277;51.354;6.740;2023-05-10T13:07:08;10.45;;;9.40;;
8480;SDS011;4277;51.354;6.740;2023-05-10T13:09:34;10.60;;;9.52;;
8480;SDS011;4277;51.354;6.740;2023-05-10T13:12:00;11.20;;;9.98;;
8480;SDS011;4277;51.354;6.740;2023-05-10T13:14:26;11.27;;;10.18;;
8480;SDS011;4277;51.354;6.740;2023-05-10T13:16:52;11.52;;;10.32;;
8480;SDS011;4277;51.354;6.740;2023-05-10T13:19:18;10.20;;;9.23;;
8480;SDS011;4277;51.354;6.740;2023-05-10T13:21:45;12.27;;;11.07;;
8480;SDS011;4277;51.354;6.740;2023-05-10T13:24:11;13.38;;;11.77;;
8480;SDS011;4277;51.354;6.740;2023-05-10T13:26:39;13.02;;;11.45;;
8480;SDS011;4277;51.354;6.740;2023-05-10T13:29:05;12.82;;;11.30;;
8480;SDS011;4277;51.354;6.740;2023-05-10T13:31:31;12.00;;;10.80;;
8480;SDS011;4277;51.354;6.740;2023-05-10T13:33:57;11.98;;;10.48;;
8480;SDS011;4277;51.354;6.740;2023-05-10T13:36:23;14.70;;;12.82;;
8480;SDS011;4277;51.354;6.740;2023-05-10T13:38:49;14.30;;;12.02;;
8480;SDS011;4277;51.354;6.740;2023-05-10T13:41:15;13.65;;;12.05;;
8480;SDS011;4277;51.354;6.740;2023-05-10T13:43:42;13.63;;;12.23;;
8480;SDS011;4277;51.354;6.740;2023-05-10T13:46:07;15.23;;;12.43;;
8480;SDS011;4277;51.354;6.740;2023-05-10T13:48:33;13.65;;;11.20;;
8480;SDS011;4277;51.354;6.740;2023-05-10T13:51:01;13.65;;;11.55;;
8480;SDS011;4277;51.354;6.740;2023-05-10T13:53:27;12.07;;;10.50;;
8480;SDS011;4277;51.354;6.740;2023-05-10T13:55:53;12.60;;;9.98;;
8480;SDS011;4277;51.354;6.740;2023-05-10T13:58:19;11.20;;;10.10;;
8480;SDS011;4277;51.354;6.740;2023-05-10T14:00:45;13.63;;;11.38;;
8480;SDS011;4277;51.354;6.740;2023-05-10T14:03:11;12.18;;;10.98;;
8480;SDS011;4277;51.354;6.740;2023-05-10T14:05:37;14.00;;;11.48;;
8480;SDS011;4277;51.354;6.740;2023-05-10T14:08:03;13.82;;;12.50;;
8480;SDS011;4277;51.354;6.740;2023-05-10T14:10:29;18.70;;;13.45;;
8480;SDS011;4277;51.354;6.740;2023-05-10T14:12:55;15.55;;;13.88;;
8480;SDS011;4277;51.354;6.740;2023-05-10T14:15:21;15.50;;;13.95;;
8480;SDS011;4277;51.354;6.740;2023-05-10T14:17:47;16.67;;;14.82;;
8480;SDS011;4277;51.354;6.740;2023-05-10T14:20:13;16.63;;;14.93;;
8480;SDS011;4277;51.354;6.740;2023-05-10T14:22:39;14.90;;;13.35;;
8480;SDS011;4277;51.354;6.740;2023-05-10T14:25:05;16.85;;;14.10;;
8480;SDS011;4277;51.354;6.740;2023-05-10T14:27:32;16.10;;;14.00;;
8480;SDS011;4277;51.354;6.740;2023-05-10T14:29:58;16.08;;;14.18;;
8480;SDS011;4277;51.354;6.740;2023-05-10T14:32:24;18.83;;;15.23;;
8480;SDS011;4277;51.354;6.740;2023-05-10T14:34:52;16.55;;;14.15;;
8480;SDS011;4277;51.354;6.740;2023-05-10T14:37:18;16.95;;;14.02;;
8480;SDS011;4277;51.354;6.740;2023-05-10T14:39:44;17.05;;;15.32;;
8480;SDS011;4277;51.354;6.740;2023-05-10T14:42:10;16.33;;;14.63;;
8480;SDS011;4277;51.354;6.740;2023-05-10T14:44:36;16.38;;;14.15;;
8480;SDS011;4277;51.354;6.740;2023-05-10T14:47:02;15.65;;;14.05;;
8480;SDS011;4277;51.354;6.740;2023-05-10T14:49:28;14.55;;;13.00;;
8480;SDS011;4277;51.354;6.740;2023-05-10T14:51:54;13.23;;;11.98;;
8480;SDS011;4277;51.354;6.740;2023-05-10T14:54:20;12.27;;;10.80;;
8480;SDS011;4277;51.354;6.740;2023-05-10T14:56:46;12.48;;;11.23;;
8480;SDS011;4277;51.354;6.740;2023-05-10T14:59:14;12.25;;;10.90;;
8480;SDS011;4277;51.354;6.740;2023-05-10T15:01:40;13.25;;;11.10;;
8480;SDS011;4277;51.354;6.740;2023-05-10T15:04:07;11.77;;;10.57;;
8480;SDS011;4277;51.354;6.740;2023-05-10T15:06:33;11.10;;;9.90;;
8480;SDS011;4277;51.354;6.740;2023-05-10T15:09:00;11.05;;;9.95;;
8480;SDS011;4277;51.354;6.740;2023-05-10T15:11:26;13.65;;;10.32;;
8480;SDS011;4277;51.354;6.740;2023-05-10T15:13:53;10.93;;;9.82;;
8480;SDS011;4277;51.354;6.740;2023-05-10T15:16:19;11.27;;;9.65;;
8480;SDS011;4277;51.354;6.740;2023-05-10T15:18:44;10.75;;;9.60;;
8480;SDS011;4277;51.354;6.740;2023-05-10T15:21:11;10.40;;;9.40;;
8480;SDS011;4277;51.354;6.740;2023-05-10T15:23:37;11.38;;;9.45;;
8480;SDS011;4277;51.354;6.740;2023-05-10T15:26:03;10.10;;;8.68;;
8480;SDS011;4277;51.354;6.740;2023-05-10T15:28:29;9.93;;;9.02;;
8480;SDS011;4277;51.354;6.740;2023-05-10T15:30:55;10.60;;;9.05;;
8480;SDS011;4277;51.354;6.740;2023-05-10T15:33:21;8.60;;;7.80;;
8480;SDS011;4277;51.354;6.740;2023-05-10T15:35:47;8.10;;;7.30;;
8480;SDS011;4277;51.354;6.740;2023-05-10T15:38:13;10.23;;;6.60;;